createdAt,value
2022-11-29T00:01:16.167Z,100467.94
2022-11-29T00:03:42.979Z,100463.41
2022-11-29T00:06:12.628Z,100461.59
2022-11-29T00:08:39.180Z,100468.69
2022-11-29T00:11:08.656Z,100464.44
2022-11-29T00:13:35.744Z,100463.50
2022-11-29T00:16:07.714Z,100466.16
2022-11-29T00:18:34.650Z,100467.19
2022-11-29T00:21:05.574Z,100464.44
2022-11-29T00:23:32.052Z,100456.72
2022-11-29T00:26:05.840Z,100456.50
2022-11-29T00:28:32.807Z,100462.53
2022-11-29T00:30:59.416Z,100464.16
2022-11-29T00:33:26.630Z,100466.78
2022-11-29T00:35:53.065Z,100465.00
2022-11-29T00:38:19.520Z,100459.72
2022-11-29T00:40:51.727Z,100465.00
2022-11-29T00:43:18.334Z,100456.84
2022-11-29T00:45:44.863Z,100466.50
2022-11-29T00:48:11.329Z,100457.88
2022-11-29T00:50:37.763Z,100469.16
2022-11-29T00:53:04.222Z,100469.03
2022-11-29T00:55:30.661Z,100463.84
2022-11-29T00:57:57.131Z,100459.50
2022-11-29T01:00:23.582Z,100455.91
2022-11-29T01:02:50.034Z,100462.16
2022-11-29T01:05:16.476Z,100455.91
2022-11-29T01:07:42.972Z,100462.91
2022-11-29T01:10:09.897Z,100457.59
2022-11-29T01:12:37.754Z,100463.66
2022-11-29T01:15:06.374Z,100461.97
2022-11-29T01:17:35.920Z,100465.44
2022-11-29T01:20:03.712Z,100472.53
2022-11-29T01:22:30.188Z,100469.91
2022-11-29T01:24:56.627Z,100469.78
2022-11-29T01:27:23.219Z,100474.13
2022-11-29T01:29:49.662Z,100466.28
2022-11-29T01:32:16.272Z,100469.03
2022-11-29T01:34:43.200Z,100467.16
2022-11-29T01:37:09.825Z,100468.81
2022-11-29T01:39:36.304Z,100470.44
2022-11-29T01:42:03.112Z,100474.97
2022-11-29T01:44:29.489Z,100468.00
2022-11-29T01:46:56.914Z,100471.56
2022-11-29T01:49:36.811Z,100473.28
2022-11-29T01:52:08.062Z,100475.19
2022-11-29T01:54:39.495Z,100475.19
2022-11-29T01:57:08.490Z,100474.97
2022-11-29T01:59:37.286Z,100473.28
2022-11-29T02:02:12.591Z,100470.72
2022-11-29T02:04:42.173Z,100469.78
2022-11-29T02:07:09.407Z,100480.25
2022-11-29T02:09:35.848Z,100473.28
2022-11-29T02:12:26.822Z,100480.16
2022-11-29T02:15:02.154Z,100474.97
2022-11-29T02:17:46.149Z,100484.63
2022-11-29T02:20:54.856Z,100481.31
2022-11-29T02:23:39.859Z,100481.22
2022-11-29T02:26:40.479Z,100488.19
2022-11-29T02:29:41.048Z,100486.19
2022-11-29T02:32:49.772Z,100496.78
2022-11-29T02:35:43.832Z,100488.03
2022-11-29T02:38:22.435Z,100492.34
2022-11-29T02:40:54.388Z,100495.00
2022-11-29T02:43:45.855Z,100493.38
2022-11-29T02:46:34.259Z,100495.84
2022-11-29T02:49:12.016Z,100499.53
2022-11-29T02:51:49.521Z,100499.34
2022-11-29T02:54:34.032Z,100498.69
2022-11-29T02:57:11.624Z,100495.09
2022-11-29T02:59:47.084Z,100500.28
2022-11-29T03:02:37.357Z,100505.78
2022-11-29T03:05:15.315Z,100502.69
2022-11-29T03:07:50.446Z,100504.81
2022-11-29T03:10:28.628Z,100500.50
2022-11-29T03:12:55.633Z,100509.25
2022-11-29T03:15:48.129Z,100502.47
2022-11-29T03:18:33.215Z,100514.66
2022-11-29T03:21:24.608Z,100504.38
2022-11-29T03:23:55.085Z,100514.88
2022-11-29T03:26:29.775Z,100518.06
2022-11-29T03:29:08.081Z,100518.81
2022-11-29T03:31:39.106Z,100513.41
2022-11-29T03:34:26.304Z,100517.03
2022-11-29T03:37:06.136Z,100518.69
2022-11-29T03:39:44.699Z,100529.50
2022-11-29T03:42:16.416Z,100522.09
2022-11-29T03:44:50.592Z,100525.81
2022-11-29T03:47:26.131Z,100523.81
2022-11-29T03:49:58.982Z,100521.16
2022-11-29T03:52:31.603Z,100524.09
2022-11-29T03:55:24.738Z,100525.59
2022-11-29T03:58:08.243Z,100520.53
2022-11-29T04:00:49.564Z,100525.88
2022-11-29T04:03:32.155Z,100523.06
2022-11-29T04:05:58.533Z,100518.59
2022-11-29T04:08:49.810Z,100526.47
2022-11-29T04:11:55.162Z,100528.25
2022-11-29T04:14:28.752Z,100522.00
2022-11-29T04:17:17.331Z,100524.63
2022-11-29T04:20:05.308Z,100521.91
2022-11-29T04:22:59.261Z,100532.69
2022-11-29T04:25:36.877Z,100529.19
2022-11-29T04:28:37.812Z,100530.78
2022-11-29T04:31:22.790Z,100534.41
2022-11-29T04:34:04.348Z,100541.25
2022-11-29T04:37:09.261Z,100536.09
2022-11-29T04:40:09.922Z,100542.13
2022-11-29T04:43:08.797Z,100545.06
2022-11-29T04:45:55.699Z,100542.34
2022-11-29T04:48:56.048Z,100555.56
2022-11-29T04:51:53.704Z,100548.06
2022-11-29T04:54:27.594Z,100554.44
2022-11-29T04:57:06.028Z,100553.75
2022-11-29T04:59:48.199Z,100549.69
2022-11-29T05:02:52.219Z,100551.41
2022-11-29T05:05:27.591Z,100547.63
2022-11-29T05:08:32.140Z,100558.28
2022-11-29T05:11:10.576Z,100557.75
2022-11-29T05:13:50.980Z,100565.97
2022-11-29T05:16:29.072Z,100563.03
2022-11-29T05:19:13.290Z,100563.91
2022-11-29T05:21:42.894Z,100567.78
2022-11-29T05:24:12.090Z,100565.91
2022-11-29T05:26:50.182Z,100568.03
2022-11-29T05:29:26.039Z,100576.91
2022-11-29T05:32:04.762Z,100576.16
2022-11-29T05:34:40.208Z,100565.50
2022-11-29T05:37:31.248Z,100579.38
2022-11-29T05:40:36.588Z,100579.78
2022-11-29T05:43:24.451Z,100582.09
2022-11-29T05:46:12.750Z,100585.16
2022-11-29T05:48:48.892Z,100583.56
2022-11-29T05:51:40.052Z,100587.06
2022-11-29T05:54:33.698Z,100577.41
2022-11-29T05:57:11.406Z,100580.16
2022-11-29T05:59:38.992Z,100583.72
2022-11-29T06:02:20.337Z,100583.44
2022-11-29T06:04:58.634Z,100592.25
2022-11-29T06:07:37.381Z,100597.66
2022-11-29T06:10:06.976Z,100588.00
2022-11-29T06:12:35.933Z,100599.53
2022-11-29T06:15:46.526Z,100600.38
2022-11-29T06:18:44.753Z,100606.03
2022-11-29T06:21:29.806Z,100608.97
2022-11-29T06:24:23.286Z,100613.53
2022-11-29T06:27:05.726Z,100614.34
2022-11-29T06:29:50.484Z,100610.78
2022-11-29T06:32:30.491Z,100615.09
2022-11-29T06:35:00.628Z,100619.75
2022-11-29T06:37:38.941Z,100619.34
2022-11-29T06:40:09.639Z,100621.25
2022-11-29T06:42:36.204Z,100621.16
2022-11-29T06:45:03.499Z,100619.56
2022-11-29T06:47:57.841Z,100620.41
2022-11-29T06:50:30.317Z,100626.44
2022-11-29T06:53:23.597Z,100627.41
2022-11-29T06:56:17.992Z,100626.53
2022-11-29T06:58:57.967Z,100622.97
2022-11-29T07:01:42.326Z,100624.75
2022-11-29T07:04:35.225Z,100626.16
2022-11-29T07:07:02.041Z,100634.97
2022-11-29T07:09:34.670Z,100638.34
2022-11-29T07:12:01.467Z,100642.13
2022-11-29T07:14:28.228Z,100647.31
2022-11-29T07:17:03.465Z,100641.94
2022-11-29T07:19:42.516Z,100644.31
2022-11-29T07:22:17.708Z,100644.19
2022-11-29T07:25:03.244Z,100648.34
2022-11-29T07:27:38.118Z,100650.06
2022-11-29T07:30:16.783Z,100650.34
2022-11-29T07:33:14.715Z,100651.09
2022-11-29T07:35:53.271Z,100660.72
2022-11-29T07:38:29.591Z,100664.88
2022-11-29T07:41:16.546Z,100665.75
2022-11-29T07:43:53.938Z,100663.31
2022-11-29T07:46:20.440Z,100667.53
2022-11-29T07:48:46.912Z,100667.53
2022-11-29T07:51:14.205Z,100670.09
2022-11-29T07:53:43.713Z,100668.28
2022-11-29T07:56:10.726Z,100671.03
2022-11-29T07:58:37.234Z,100679.84
2022-11-29T08:01:03.967Z,100670.81
2022-11-29T08:03:35.342Z,100678.50
2022-11-29T08:06:02.800Z,100679.34
2022-11-29T08:08:29.361Z,100677.56
2022-11-29T08:10:55.933Z,100674.91
2022-11-29T08:13:22.421Z,100676.81
2022-11-29T08:16:19.325Z,100678.38
2022-11-29T08:18:45.818Z,100680.09
2022-11-29T08:21:17.827Z,100679.88
2022-11-29T08:23:48.519Z,100681.72
2022-11-29T08:26:16.324Z,100687.00
2022-11-29T08:28:42.852Z,100686.81
2022-11-29T08:31:11.304Z,100686.69
2022-11-29T08:33:40.732Z,100689.28
2022-11-29T08:36:13.053Z,100680.56
2022-11-29T08:38:40.231Z,100686.69
2022-11-29T08:41:09.166Z,100687.56
2022-11-29T08:43:36.096Z,100696.03
2022-11-29T08:46:02.980Z,100691.72
2022-11-29T08:48:29.523Z,100693.38
2022-11-29T08:50:56.737Z,100694.25
2022-11-29T08:53:42.241Z,100693.97
2022-11-29T08:56:53.325Z,100696.63
2022-11-29T08:59:00.805Z,100699.16
2022-11-29T09:01:27.383Z,100706.19
2022-11-29T09:03:59.593Z,100705.09
2022-11-29T09:06:28.131Z,100705.22
2022-11-29T09:08:56.448Z,100708.50
2022-11-29T09:11:24.531Z,100718.06
2022-11-29T09:13:53.768Z,100712.88
2022-11-29T09:16:23.921Z,100718.94
2022-11-29T09:18:52.089Z,100716.16
2022-11-29T09:21:19.512Z,100723.16
2022-11-29T09:23:46.396Z,100715.22
2022-11-29T09:26:17.385Z,100717.78
2022-11-29T09:28:43.902Z,100712.38
2022-11-29T09:31:13.253Z,100724.66
2022-11-29T09:33:40.208Z,100717.69
2022-11-29T09:36:09.439Z,100722.75
2022-11-29T09:38:36.514Z,100713.88
2022-11-29T09:41:06.748Z,100714.81
2022-11-29T09:44:00.636Z,100727.03
2022-11-29T09:46:58.844Z,100721.44
2022-11-29T09:50:03.649Z,100732.03
2022-11-29T09:52:59.499Z,100723.13
2022-11-29T09:55:57.004Z,100728.34
2022-11-29T09:58:32.781Z,100726.53
2022-11-29T10:01:06.130Z,100729.81
2022-11-29T10:03:40.862Z,100726.25
2022-11-29T10:06:17.949Z,100724.44
2022-11-29T10:08:51.459Z,100727.00
2022-11-29T10:11:25.196Z,100732.19
2022-11-29T10:13:57.839Z,100729.53
2022-11-29T10:16:42.020Z,100732.06
2022-11-29T10:19:27.102Z,100725.84
2022-11-29T10:22:07.251Z,100734.66
2022-11-29T10:24:34.231Z,100732.66
2022-11-29T10:27:00.809Z,100730.94
2022-11-29T10:29:27.304Z,100730.00
2022-11-29T10:31:56.779Z,100725.44
2022-11-29T10:34:26.085Z,100730.66
2022-11-29T10:36:59.382Z,100735.72
2022-11-29T10:39:37.066Z,100729.38
2022-11-29T10:42:06.468Z,100736.59
2022-11-29T10:44:33.677Z,100733.75
2022-11-29T10:47:05.445Z,100727.19
2022-11-29T10:49:36.096Z,100736.19
2022-11-29T10:52:02.569Z,100732.41
2022-11-29T10:54:38.615Z,100728.81
2022-11-29T10:57:14.309Z,100734.94
2022-11-29T10:59:40.796Z,100737.50
2022-11-29T11:02:21.042Z,100743.56
2022-11-29T11:04:48.213Z,100741.00
2022-11-29T11:07:25.395Z,100733.69
2022-11-29T11:09:55.939Z,100730.31
2022-11-29T11:12:26.831Z,100740.69
2022-11-29T11:15:15.518Z,100743.25
2022-11-29T11:18:04.749Z,100738.69
2022-11-29T11:20:37.164Z,100731.59
2022-11-29T11:23:26.664Z,100733.28
2022-11-29T11:26:00.334Z,100736.91
2022-11-29T11:28:30.945Z,100737.44
2022-11-29T11:31:08.490Z,100737.53
2022-11-29T11:33:38.628Z,100741.97
2022-11-29T11:36:21.119Z,100746.47
2022-11-29T11:38:59.058Z,100738.50
2022-11-29T11:41:57.226Z,100746.34
2022-11-29T11:44:47.284Z,100744.56
2022-11-29T11:47:18.921Z,100742.53
2022-11-29T11:50:04.053Z,100749.63
2022-11-29T11:52:39.824Z,100747.09
2022-11-29T11:55:29.130Z,100741.78
2022-11-29T11:58:09.814Z,100749.84
2022-11-29T12:01:05.035Z,100739.25
2022-11-29T12:03:53.056Z,100743.69
2022-11-29T12:06:19.425Z,100746.25
2022-11-29T12:08:48.894Z,100746.34
2022-11-29T12:11:18.830Z,100756.19
2022-11-29T12:14:17.995Z,100757.06
2022-11-29T12:16:49.175Z,100763.19
2022-11-29T12:19:43.765Z,100755.22
2022-11-29T12:22:16.308Z,100756.19
2022-11-29T12:24:52.961Z,100753.56
2022-11-29T12:27:19.516Z,100752.59
2022-11-29T12:29:46.037Z,100757.81
2022-11-29T12:32:24.804Z,100758.56
2022-11-29T12:35:19.337Z,100759.50
2022-11-29T12:38:06.133Z,100762.16
2022-11-29T12:40:35.282Z,100765.66
2022-11-29T12:43:02.079Z,100763.00
2022-11-29T12:46:04.734Z,100769.91
2022-11-29T12:48:43.646Z,100766.41
2022-11-29T12:51:21.607Z,100771.72
2022-11-29T12:54:25.725Z,100770.75
2022-11-29T12:57:30.721Z,100784.88
2022-11-29T13:00:25.013Z,100774.25
2022-11-29T13:03:25.679Z,100777.78
2022-11-29T13:06:08.489Z,100784.47
2022-11-29T13:09:02.688Z,100788.91
2022-11-29T13:11:31.117Z,100788.03
2022-11-29T13:14:34.535Z,100789.75
2022-11-29T13:16:58.961Z,100789.94
2022-11-29T13:19:50.270Z,100788.16
2022-11-29T13:22:35.463Z,100788.91
2022-11-29T13:25:13.164Z,100790.69
2022-11-29T13:27:56.801Z,100790.38
2022-11-29T13:30:23.272Z,100793.69
2022-11-29T13:33:08.687Z,100792.72
2022-11-29T13:35:44.901Z,100789.31
2022-11-29T13:38:21.378Z,100797.47
2022-11-29T13:40:58.146Z,100790.47
2022-11-29T13:43:44.560Z,100794.19
2022-11-29T13:46:23.240Z,100793.88
2022-11-29T13:48:52.879Z,100803.97
2022-11-29T13:51:28.698Z,100795.25
2022-11-29T13:53:56.956Z,100797.06
2022-11-29T13:56:36.141Z,100802.91
2022-11-29T13:59:08.753Z,100798.97
2022-11-29T14:01:47.711Z,100809.25
2022-11-29T14:04:31.943Z,100813.34
2022-11-29T14:07:24.857Z,100818.53
2022-11-29T14:09:59.384Z,100816.34
2022-11-29T14:12:37.153Z,100822.59
2022-11-29T14:15:14.615Z,100827.13
2022-11-29T14:17:50.814Z,100823.56
2022-11-29T14:20:23.395Z,100818.31
2022-11-29T14:23:05.219Z,100826.00
2022-11-29T14:25:57.514Z,100822.28
2022-11-29T14:28:23.932Z,100818.31
2022-11-29T14:30:55.465Z,100818.91
2022-11-29T14:33:46.381Z,100818.72
2022-11-29T14:36:18.790Z,100818.13
2022-11-29T14:39:10.261Z,100820.56
2022-11-29T14:41:58.508Z,100822.44
2022-11-29T14:44:28.305Z,100818.84
2022-11-29T14:47:15.540Z,100823.50
2022-11-29T14:49:44.496Z,100821.31
2022-11-29T14:52:13.896Z,100822.97
2022-11-29T14:55:02.948Z,100826.28
2022-11-29T14:57:51.168Z,100832.75
2022-11-29T15:00:21.528Z,100838.03
2022-11-29T15:03:17.514Z,100827.59
2022-11-29T15:05:48.741Z,100833.88
2022-11-29T15:08:54.174Z,100840.06
2022-11-29T15:11:34.121Z,100842.53
2022-11-29T15:14:20.441Z,100846.56
2022-11-29T15:16:55.534Z,100841.66
2022-11-29T15:19:40.916Z,100841.00
2022-11-29T15:22:33.584Z,100843.66
2022-11-29T15:25:05.096Z,100845.56
2022-11-29T15:27:34.154Z,100853.88
2022-11-29T15:30:39.434Z,100861.84
2022-11-29T15:33:21.351Z,100859.88
2022-11-29T15:35:53.589Z,100862.03
2022-11-29T15:38:21.786Z,100864.19
2022-11-29T15:40:52.883Z,100862.91
2022-11-29T15:43:53.638Z,100862.88
2022-11-29T15:46:24.840Z,100875.19
2022-11-29T15:48:51.333Z,100877.47
2022-11-29T15:51:33.625Z,100872.59
2022-11-29T15:54:13.799Z,100882.03
2022-11-29T15:56:56.435Z,100882.03
2022-11-29T15:59:40.779Z,100883.53
2022-11-29T16:02:30.025Z,100892.34
2022-11-29T16:05:03.021Z,100886.59
2022-11-29T16:07:32.615Z,100882.31
2022-11-29T16:10:13.078Z,100884.63
2022-11-29T16:12:52.689Z,100891.94
2022-11-29T16:15:28.105Z,100891.47
2022-11-29T16:17:54.752Z,100897.16
2022-11-29T16:20:24.308Z,100895.22
2022-11-29T16:23:11.313Z,100900.31
2022-11-29T16:25:55.872Z,100900.63
2022-11-29T16:28:32.836Z,100905.16
2022-11-29T16:31:00.067Z,100903.25
2022-11-29T16:33:27.226Z,100912.03
2022-11-29T16:36:16.616Z,100912.44
2022-11-29T16:38:48.682Z,100911.50
2022-11-29T16:41:35.497Z,100920.50
2022-11-29T16:44:03.628Z,100920.22
2022-11-29T16:46:35.962Z,100921.50
2022-11-29T16:49:34.522Z,100925.50
2022-11-29T16:52:02.446Z,100926.44
2022-11-29T16:54:35.370Z,100934.91
2022-11-29T16:57:05.394Z,100938.31
2022-11-29T16:59:32.483Z,100928.16
2022-11-29T17:01:59.470Z,100925.63
2022-11-29T17:04:26.358Z,100937.47
2022-11-29T17:06:54.820Z,100922.13
2022-11-29T17:09:24.419Z,100937.28
2022-11-29T17:11:51.720Z,100942.78
2022-11-29T17:14:18.237Z,100935.59
2022-11-29T17:16:44.833Z,100939.81
2022-11-29T17:19:12.640Z,100946.34
2022-11-29T17:21:39.296Z,100942.00
2022-11-29T17:24:06.360Z,100947.22
2022-11-29T17:26:32.825Z,100952.31
2022-11-29T17:28:59.284Z,100945.31
2022-11-29T17:31:25.881Z,100949.56
2022-11-29T17:33:52.448Z,100957.44
2022-11-29T17:36:21.173Z,100951.56
2022-11-29T17:38:48.061Z,100956.59
2022-11-29T17:41:22.260Z,100958.19
2022-11-29T17:43:50.874Z,100965.19
2022-11-29T17:46:24.979Z,100968.41
2022-11-29T17:48:52.432Z,100976.66
2022-11-29T17:54:08.503Z,100978.44
2022-11-29T17:56:35.123Z,100976.28
2022-11-29T17:59:03.597Z,100981.09
2022-11-29T18:01:33.541Z,100982.16
2022-11-29T18:04:01.790Z,100988.13
2022-11-29T18:06:30.918Z,100989.16
2022-11-29T18:08:59.620Z,100992.78
2022-11-29T18:11:32.432Z,100982.34
2022-11-29T18:14:03.506Z,100991.16
2022-11-29T18:16:32.945Z,100985.91
2022-11-29T18:19:01.706Z,100981.69
2022-11-29T18:21:28.730Z,100978.81
2022-11-29T18:23:55.692Z,100983.19
2022-11-29T18:26:24.276Z,100984.41
2022-11-29T18:28:51.615Z,100982.63
2022-11-29T18:31:28.297Z,100985.94
2022-11-29T18:33:57.767Z,100988.66
2022-11-29T18:36:27.052Z,100991.59
2022-11-29T18:38:59.278Z,100999.56
2022-11-29T18:41:27.211Z,100988.94
2022-11-29T18:43:59.239Z,100990.09
2022-11-29T18:46:28.221Z,100991.72
2022-11-29T18:48:54.701Z,100994.66
2022-11-29T18:51:21.209Z,100999.84
2022-11-29T18:53:47.718Z,100996.91
2022-11-29T18:56:19.960Z,100991.63
2022-11-29T18:58:47.830Z,100998.06
2022-11-29T19:01:17.020Z,100996.94
2022-11-29T19:03:46.034Z,100999.34
2022-11-29T19:06:14.752Z,101005.72
2022-11-29T19:08:42.879Z,101001.47
2022-11-29T19:11:17.790Z,101012.91
2022-11-29T19:13:44.826Z,101007.81
2022-11-29T19:16:15.385Z,101003.44
2022-11-29T19:18:42.208Z,101010.81
2022-11-29T19:21:14.361Z,101008.47
2022-11-29T19:23:41.861Z,101002.78
2022-11-29T19:26:12.833Z,101007.97
2022-11-29T19:28:42.105Z,101007.78
2022-11-29T19:31:09.712Z,101008.38
2022-11-29T19:33:37.875Z,101012.41
2022-11-29T19:36:06.489Z,101018.28
2022-11-29T19:38:35.740Z,101011.94
2022-11-29T19:41:20.600Z,101010.25
2022-11-29T19:43:48.405Z,101013.56
2022-11-29T19:46:20.938Z,101010.75
2022-11-29T19:48:47.888Z,101016.13
2022-11-29T19:51:17.976Z,101015.53
2022-11-29T19:53:45.884Z,101015.91
2022-11-29T19:56:15.420Z,101017.38
2022-11-29T19:58:42.747Z,101013.97
2022-11-29T20:01:16.351Z,101012.25
2022-11-29T20:03:43.520Z,101019.53
2022-11-29T20:06:10.884Z,101023.56
2022-11-29T20:08:37.922Z,101021.88
2022-11-29T20:11:13.148Z,101030.22
2022-11-29T20:13:41.098Z,101025.69
2022-11-29T20:16:10.898Z,101029.94
2022-11-29T20:18:43.543Z,101027.84
2022-11-29T20:21:17.759Z,101039.09
2022-11-29T20:23:44.251Z,101040.34
2022-11-29T20:26:14.952Z,101040.16
2022-11-29T20:28:42.219Z,101041.00
2022-11-29T20:31:12.939Z,101041.75
2022-11-29T20:33:42.468Z,101040.94
2022-11-29T20:36:08.834Z,101051.16
2022-11-29T20:38:47.464Z,101050.56
2022-11-29T20:42:18.712Z,101050.69
2022-11-29T20:44:51.057Z,101046.22
2022-11-29T20:47:23.353Z,101052.84
2022-11-29T20:49:50.461Z,101052.66
2022-11-29T20:52:45.070Z,101050.47
2022-11-29T20:55:13.826Z,101047.47
2022-11-29T20:57:40.255Z,101049.16
2022-11-29T21:00:09.138Z,101046.66
2022-11-29T21:02:35.650Z,101051.31
2022-11-29T21:05:02.216Z,101044.34
2022-11-29T21:07:29.255Z,101044.78
2022-11-29T21:10:00.936Z,101042.88
2022-11-29T21:12:29.108Z,101052.91
2022-11-29T21:14:55.784Z,101047.00
2022-11-29T21:17:22.559Z,101052.16
2022-11-29T21:19:49.428Z,101053.19
2022-11-29T21:22:25.455Z,101054.44
2022-11-29T21:25:41.132Z,101059.84
2022-11-29T21:28:15.537Z,101058.31
2022-11-29T21:30:43.056Z,101062.19
2022-11-29T21:33:11.175Z,101061.50
2022-11-29T21:35:42.006Z,101059.69
2022-11-29T21:38:14.694Z,101067.28
2022-11-29T21:40:41.200Z,101066.66
2022-11-29T21:43:10.460Z,101062.03
2022-11-29T21:45:37.028Z,101065.09
2022-11-29T21:48:03.594Z,101067.25
2022-11-29T21:50:30.028Z,101070.50
2022-11-29T21:52:56.481Z,101070.34
2022-11-29T21:55:22.934Z,101074.34
2022-11-29T21:57:49.366Z,101075.69
2022-11-29T22:00:16.253Z,101077.59
2022-11-29T22:02:42.827Z,101072.19
2022-11-29T22:05:09.659Z,101072.19
2022-11-29T22:07:36.284Z,101073.16
2022-11-29T22:10:09.979Z,101071.25
2022-11-29T22:12:42.855Z,101074.69
2022-11-29T22:15:13.985Z,101072.75
2022-11-29T22:17:40.428Z,101074.44
2022-11-29T22:20:07.545Z,101073.91
2022-11-29T22:22:33.985Z,101070.50
2022-11-29T22:25:00.436Z,101072.69
2022-11-29T22:27:26.887Z,101074.22
2022-11-29T22:29:53.362Z,101074.75
2022-11-29T22:32:19.813Z,101069.69
2022-11-29T22:34:46.504Z,101078.69
2022-11-29T22:37:13.224Z,101079.41
2022-11-29T22:39:39.656Z,101074.88
2022-11-29T22:42:06.893Z,101078.13
2022-11-29T22:44:33.360Z,101082.16
2022-11-29T22:46:59.830Z,101083.06
2022-11-29T22:49:26.358Z,101077.47
2022-11-29T22:51:53.342Z,101086.59
2022-11-29T22:54:20.287Z,101079.25
2022-11-29T22:56:47.391Z,101080.66
2022-11-29T22:59:14.122Z,101079.63
2022-11-29T23:01:41.666Z,101090.09
2022-11-29T23:04:09.430Z,101079.72
2022-11-29T23:06:41.680Z,101093.22
2022-11-29T23:09:16.337Z,101091.72
2022-11-29T23:11:44.753Z,101088.81
2022-11-29T23:14:11.696Z,101095.13
2022-11-29T23:16:38.289Z,101085.94
2022-11-29T23:19:04.770Z,101091.91
2022-11-29T23:21:35.039Z,101087.19
2022-11-29T23:24:02.271Z,101093.59
2022-11-29T23:26:39.483Z,101095.75
2022-11-29T23:29:08.388Z,101089.69
2022-11-29T23:31:34.938Z,101096.78
2022-11-29T23:34:02.613Z,101095.34
2022-11-29T23:36:29.046Z,101092.16
2022-11-29T23:38:55.497Z,101099.19
2022-11-29T23:41:22.109Z,101095.22
2022-11-29T23:43:48.560Z,101091.66
2022-11-29T23:46:23.201Z,101095.22
2022-11-29T23:48:50.413Z,101100.09
2022-11-29T23:51:18.041Z,101096.97
2022-11-29T23:53:44.840Z,101092.59
2022-11-29T23:56:16.172Z,101098.94
2022-11-29T23:58:43.695Z,101094.06
